Moody Air Force Base
KVAD : now visible

Airfield :











YOU CAN JOIN US ON...

 
LOGIN :

Register | Disclaimer

   EN    FR    IT 

 









Legend :    VFR   Marginal VFR   IFR   Intensive IFR   Very Intensive IFR
Visi :
Ceiling :
>= 8 km
>= 3000ft
5 to 8 km
1000 to 3000 ft
1500m to 5 km
500 to 1000 ft
800 to 1500m
200 to 500 ft
< 800m
< 200 ft
Symbols :   Thunderstorms  Fog  Heavy snow  Heavy precipitations  Wind > 20 kt






- Airport Elevation : 233 ft


KVAD - Moody Air Force Base

CURRENT METAR :
  • 160956Z AUTO 00000KT 10SM CLR 08/07 A3014 RMK AO2 SLP208 T00790071 PWINO $

EXPIRED METARs :
  • 160856Z AUTO 00000KT 10SM CLR 08/07 A3015 RMK AO2 SLP212 T00780070 53003 PWINO $
  • 160756Z AUTO 00000KT 10SM CLR 09/08 A3015 RMK AO2 SLP212 T00890077 PWINO $

TAF TAF KVAD
Valid from the 16 at 09:00 until the 17 at 15:00 UTC


160900Z 1609/1715 15003KT 8000 BR SKC QNH3014INS
BECMG 1614/1615 18010G15KT 9999 NSW BKN020 QNH3005INS
BECMG 1622/1623 20006KT 9999 BKN020 QNH3003INS
BECMG 1704/1705 18006KT 9999 OVC010 QNH3000INS
BECMG 1709/1710 18006KT 4800 BR OVC005 QNH3000INS TX24/1618Z TN09/1609Z



MET'MAP, your aeronautical weather chart ! - Copyright ORBIFLY December 2007 - Disclaimer

ORBIFLY MET'MAP TEAM :

Programming & Development : Alexandra Zaïnal
Concept & original design : Baudouin d'Aumeries
Assistance for programming : Marc-Olivier Méhu
Technical & hardware support : Manuel Goepfert

Contact : metmap@orbifly.com




SOURCES & CREDITS :

   NOAA       Earth
Advisory